Time;durP1;ratioP1;P1;durP2;ratioP2;P2;SDS_P1;SDS_P2;PMS_P1;PMS_P2;Temp;Humidity;BMP_temperature;BMP_pressure;BME280_temperature;BME280_humidity;BME280_pressure;Samples;Min_cycle;Max_cycle;Signal;HPM_P1;HPM_P2
2021/07/01 00:00:30;;;;;;;13.23;8.82;;;22.40;77.10;;;;;;4995195;28;20390;-70
2021/07/01 00:02:56;;;;;;;10.05;8.40;;;22.40;77.30;;;;;;4977449;28;20053;-65
2021/07/01 00:05:21;;;;;;;12.27;8.52;;;22.50;77.10;;;;;;4995255;28;20117;-66
2021/07/01 00:07:48;;;;;;;11.27;8.63;;;22.50;77.00;;;;;;4976381;28;20034;-66
2021/07/01 00:10:13;;;;;;;11.40;9.10;;;22.50;76.90;;;;;;4994292;28;20033;-66
2021/07/01 00:12:39;;;;;;;15.27;9.85;;;22.40;76.90;;;;;;4994007;28;20039;-67
2021/07/01 00:15:08;;;;;;;13.95;10.30;;;22.40;77.00;;;;;;4994801;28;20067;-64
2021/07/01 00:17:34;;;;;;;14.00;9.10;;;22.40;77.10;;;;;;4977482;28;20476;-67
2021/07/01 00:20:00;;;;;;;14.50;9.50;;;22.40;77.30;;;;;;4994611;28;20060;-66
2021/07/01 00:22:25;;;;;;;12.65;9.75;;;22.40;77.40;;;;;;4977136;28;20113;-66
2021/07/01 00:24:51;;;;;;;14.95;9.18;;;22.40;77.60;;;;;;4976352;28;20476;-64
2021/07/01 00:27:17;;;;;;;13.80;9.63;;;22.40;77.60;;;;;;4994203;28;20022;-65
2021/07/01 00:29:43;;;;;;;15.35;10.32;;;22.40;77.70;;;;;;4993624;28;20038;-68
2021/07/01 00:32:09;;;;;;;12.68;9.65;;;22.30;77.90;;;;;;4987592;28;20487;-67
2021/07/01 00:34:34;;;;;;;13.13;9.35;;;22.30;78.10;;;;;;4994228;28;20030;-67
2021/07/01 00:37:00;;;;;;;12.88;9.63;;;22.20;78.20;;;;;;4994321;28;20034;-66
2021/07/01 00:39:26;;;;;;;12.32;9.40;;;22.10;78.70;;;;;;4993586;28;20030;-66
2021/07/01 00:41:51;;;;;;;12.13;9.25;;;22.10;78.50;;;;;;4979647;28;20038;-67
2021/07/01 00:44:17;;;;;;;12.63;9.43;;;22.10;78.60;;;;;;4994177;28;20034;-66
2021/07/01 00:46:43;;;;;;;14.60;10.93;;;22.10;78.80;;;;;;4993913;28;20033;-66
2021/07/01 00:49:08;;;;;;;16.48;10.88;;;22.10;78.90;;;;;;4993516;28;20142;-66
2021/07/01 00:51:34;;;;;;;13.18;9.73;;;22.10;79.00;;;;;;4993756;28;20034;-64
2021/07/01 00:54:00;;;;;;;15.00;9.50;;;22.10;79.10;;;;;;4993803;28;20018;-65
2021/07/01 00:56:26;;;;;;;12.27;9.60;;;22.10;79.30;;;;;;4993904;28;20050;-64
2021/07/01 00:58:54;;;;;;;12.25;8.40;;;22.10;80.20;;;;;;4993952;28;20366;-64
2021/07/01 01:01:21;;;;;;;12.60;9.45;;;22.00;79.80;;;;;;4983599;28;20034;-68
2021/07/01 01:03:47;;;;;;;11.70;9.18;;;22.10;80.00;;;;;;4990152;28;20073;-65
2021/07/01 01:06:13;;;;;;;18.48;13.90;;;22.10;80.10;;;;;;4993467;28;20469;-64
2021/07/01 01:08:39;;;;;;;14.07;10.27;;;22.10;80.10;;;;;;4987211;28;20030;-69
2021/07/01 01:11:05;;;;;;;14.90;10.88;;;22.10;80.10;;;;;;4993614;28;20026;-64
2021/07/01 01:13:31;;;;;;;12.10;9.70;;;22.00;80.20;;;;;;5001698;28;20060;-66
2021/07/01 01:16:01;;;;;;;14.02;10.65;;;22.00;80.40;;;;;;4999207;28;20046;-66
2021/07/01 01:18:28;;;;;;;15.65;11.27;;;22.00;80.90;;;;;;4999887;28;20045;-68
2021/07/01 01:20:56;;;;;;;16.23;11.10;;;21.90;81.10;;;;;;4990241;28;20030;-67
2021/07/01 01:23:22;;;;;;;14.07;10.60;;;22.00;81.40;;;;;;4978526;28;20760;-67
2021/07/01 01:25:50;;;;;;;17.55;12.20;;;22.10;81.50;;;;;;5000642;28;20501;-67
2021/07/01 01:28:17;;;;;;;15.73;10.70;;;22.10;81.80;;;;;;5011957;28;20025;-66
2021/07/01 01:30:43;;;;;;;14.05;10.60;;;22.20;81.80;;;;;;5001168;28;20370;-66
2021/07/01 01:33:09;;;;;;;20.80;12.98;;;22.20;81.80;;;;;;4978540;28;20498;-65
2021/07/01 01:35:36;;;;;;;17.88;13.07;;;22.30;82.00;;;;;;5003552;28;20030;-65
2021/07/01 01:38:03;;;;;;;20.15;13.25;;;22.40;82.40;;;;;;4978993;28;20520;-71
2021/07/01 01:40:29;;;;;;;18.25;11.98;;;22.50;82.90;;;;;;4995728;28;20088;-65
2021/07/01 01:42:54;;;;;;;14.40;10.68;;;22.60;82.80;;;;;;4980488;28;20468;-70
2021/07/01 01:45:21;;;;;;;15.60;10.40;;;22.60;82.70;;;;;;4997466;28;20030;-64
2021/07/01 01:47:48;;;;;;;14.00;9.98;;;22.70;83.10;;;;;;4981762;28;20122;-67
2021/07/01 01:50:18;;;;;;;12.20;9.68;;;22.80;83.10;;;;;;4993982;28;20061;-65
2021/07/01 01:52:44;;;;;;;14.32;9.57;;;23.00;83.20;;;;;;4984118;28;20033;-65
2021/07/01 01:55:12;;;;;;;11.88;9.55;;;23.10;83.10;;;;;;5011120;28;20089;-67
2021/07/01 01:57:45;;;;;;;13.40;9.95;;;23.20;82.80;;;;;;5001024;28;20029;-67
2021/07/01 02:00:12;;;;;;;14.13;10.05;;;23.20;82.60;;;;;;4984410;28;20030;-65
2021/07/01 02:02:39;;;;;;;17.40;11.52;;;23.30;82.60;;;;;;4995465;28;20021;-66
2021/07/01 02:05:07;;;;;;;17.23;10.02;;;23.30;82.90;;;;;;4976910;28;20097;-66
2021/07/01 02:07:33;;;;;;;13.93;10.18;;;23.30;83.20;;;;;;4992855;28;20031;-66
2021/07/01 02:09:59;;;;;;;13.88;9.48;;;23.30;83.60;;;;;;4978744;28;20037;-66
2021/07/01 02:12:25;;;;;;;11.50;7.80;;;23.40;84.10;;;;;;4998865;28;20029;-74
2021/07/01 02:14:51;;;;;;;12.80;7.88;;;23.40;84.60;;;;;;5003527;28;20041;-71
2021/07/01 02:17:17;;;;;;;10.77;7.40;;;23.40;85.00;;;;;;4992887;28;20530;-67
2021/07/01 02:19:43;;;;;;;11.65;7.03;;;23.30;85.00;;;;;;4993095;28;20034;-66
2021/07/01 02:22:08;;;;;;;11.07;6.78;;;23.30;84.90;;;;;;5006172;28;20064;-67
2021/07/01 02:24:34;;;;;;;9.15;6.88;;;23.40;84.70;;;;;;5016029;28;20034;-66
2021/07/01 02:27:00;;;;;;;8.52;6.53;;;23.40;84.30;;;;;;4984058;28;20105;-69
2021/07/01 02:29:25;;;;;;;8.05;6.32;;;23.50;83.80;;;;;;4996057;28;20029;-65
2021/07/01 02:31:51;;;;;;;8.98;6.18;;;23.60;83.10;;;;;;4975463;28;20047;-64
2021/07/01 02:34:17;;;;;;;10.77;6.72;;;23.60;82.60;;;;;;5002178;28;20022;-65
2021/07/01 02:36:42;;;;;;;7.85;6.18;;;23.60;82.50;;;;;;4995778;28;20109;-65
2021/07/01 02:39:08;;;;;;;8.18;6.10;;;23.60;82.30;;;;;;4996206;28;20030;-64
2021/07/01 02:41:37;;;;;;;8.93;6.35;;;23.70;82.00;;;;;;4996436;28;20113;-62
2021/07/01 02:44:04;;;;;;;7.78;6.15;;;23.70;81.90;;;;;;4995938;28;20034;-66
2021/07/01 02:46:31;;;;;;;8.73;5.88;;;23.70;81.70;;;;;;4996102;28;20034;-76
2021/07/01 02:48:57;;;;;;;9.48;6.78;;;23.80;81.80;;;;;;4996380;28;20106;-70
2021/07/01 02:51:23;;;;;;;12.07;6.35;;;23.80;82.10;;;;;;4996514;28;20037;-64
2021/07/01 02:53:48;;;;;;;9.70;6.88;;;23.80;82.30;;;;;;5013970;28;20514;-65
2021/07/01 02:56:14;;;;;;;10.35;6.20;;;23.80;82.40;;;;;;5015499;28;20099;-68
2021/07/01 02:58:40;;;;;;;8.13;6.00;;;23.80;82.50;;;;;;4998429;28;20026;-65
2021/07/01 03:01:05;;;;;;;9.02;6.15;;;23.80;82.70;;;;;;5015845;28;20069;-70
2021/07/01 03:03:31;;;;;;;10.93;6.60;;;23.70;82.90;;;;;;5015586;28;20060;-69
2021/07/01 03:05:57;;;;;;;10.23;6.45;;;23.70;83.30;;;;;;5010301;28;20026;-66
2021/07/01 03:08:23;;;;;;;12.00;7.97;;;23.70;83.20;;;;;;4996229;28;20034;-66
2021/07/01 03:10:48;;;;;;;8.90;6.95;;;23.70;83.30;;;;;;4996179;28;20035;-65
2021/07/01 03:13:15;;;;;;;13.40;9.05;;;23.70;83.40;;;;;;4996284;28;20055;-66
2021/07/01 03:15:41;;;;;;;19.88;10.65;;;23.80;83.50;;;;;;4997526;28;20074;-66
2021/07/01 03:18:07;;;;;;;24.70;18.77;;;23.80;83.70;;;;;;5015301;28;20068;-66
2021/07/01 03:20:33;;;;;;;19.70;13.98;;;23.90;83.60;;;;;;4997748;28;20465;-65
2021/07/01 03:22:58;;;;;;;17.33;13.73;;;23.90;83.80;;;;;;5015694;28;20022;-66
2021/07/01 03:25:24;;;;;;;21.95;18.48;;;23.90;84.00;;;;;;5015581;28;20030;-71
2021/07/01 03:27:50;;;;;;;28.98;21.92;;;23.90;83.50;;;;;;5015033;28;20029;-67
2021/07/01 03:30:16;;;;;;;21.88;18.35;;;24.00;83.80;;;;;;4995108;28;20072;-67
2021/07/01 03:32:41;;;;;;;17.67;13.63;;;24.00;84.10;;;;;;5001200;28;20101;-66
2021/07/01 03:35:08;;;;;;;17.38;11.48;;;23.90;84.90;;;;;;4998831;28;20117;-66
2021/07/01 03:37:34;;;;;;;12.20;10.90;;;23.90;85.60;;;;;;4987021;28;20038;-65
2021/07/01 03:39:59;;;;;;;19.08;16.02;;;23.90;86.50;;;;;;5014963;28;20030;-67
2021/07/01 03:42:26;;;;;;;17.10;14.23;;;23.80;87.60;;;;;;4997166;28;20022;-66
2021/07/01 03:44:52;;;;;;;25.58;22.15;;;23.80;88.30;;;;;;4996964;28;20029;-68
2021/07/01 03:47:17;;;;;;;15.38;12.43;;;23.90;88.60;;;;;;4997559;28;20033;-66
2021/07/01 03:49:43;;;;;;;13.07;10.05;;;23.90;88.30;;;;;;4997210;28;20471;-65
2021/07/01 03:52:09;;;;;;;8.88;7.05;;;24.00;88.40;;;;;;4990513;28;20021;-66
2021/07/01 03:54:35;;;;;;;9.35;6.63;;;24.00;88.50;;;;;;5015005;28;20045;-69
2021/07/01 03:57:02;;;;;;;8.68;6.93;;;24.10;88.50;;;;;;5014679;28;20364;-75
2021/07/01 03:59:27;;;;;;;8.80;6.70;;;24.10;88.50;;;;;;4996375;28;20119;-66
2021/07/01 04:01:53;;;;;;;9.68;6.65;;;24.10;88.80;;;;;;4988437;28;20027;-74
2021/07/01 04:04:19;;;;;;;8.93;6.47;;;24.10;88.60;;;;;;4995913;28;20049;-67
2021/07/01 04:06:44;;;;;;;11.40;6.57;;;24.10;88.70;;;;;;4979361;28;20035;-69
2021/07/01 04:09:10;;;;;;;9.73;6.53;;;24.10;88.90;;;;;;4981511;28;20076;-71
2021/07/01 04:11:36;;;;;;;8.45;7.05;;;24.10;89.20;;;;;;5011767;28;20080;-68
2021/07/01 04:14:03;;;;;;;10.23;7.20;;;24.10;89.70;;;;;;4994766;28;20184;-82
2021/07/01 04:16:29;;;;;;;11.23;6.72;;;24.10;90.00;;;;;;5002827;28;20113;-67
2021/07/01 04:18:55;;;;;;;9.48;6.60;;;24.00;89.60;;;;;;5007641;28;20022;-70
2021/07/01 04:21:26;;;;;;;14.73;10.05;;;24.00;89.50;;;;;;5001004;28;20068;-68
2021/07/01 04:23:52;;;;;;;10.85;7.45;;;24.00;90.00;;;;;;4998271;28;20383;-68
2021/07/01 04:26:17;;;;;;;9.98;7.25;;;24.00;90.10;;;;;;5005333;28;20105;-68
2021/07/01 04:28:43;;;;;;;9.13;7.03;;;24.00;90.10;;;;;;4987863;28;20118;-70
2021/07/01 04:31:09;;;;;;;8.77;6.97;;;24.00;90.20;;;;;;4995364;28;20050;-68
2021/07/01 04:33:35;;;;;;;9.88;7.30;;;24.00;90.20;;;;;;5002011;28;20030;-69
2021/07/01 04:36:03;;;;;;;10.10;7.65;;;24.00;90.30;;;;;;4988812;28;20096;-81
2021/07/01 04:38:28;;;;;;;15.70;10.18;;;24.10;90.30;;;;;;5007876;28;20026;-75
2021/07/01 04:40:55;;;;;;;15.43;11.55;;;24.10;90.30;;;;;;5014723;28;20045;-72
2021/07/01 04:43:21;;;;;;;11.07;9.00;;;24.10;90.20;;;;;;5015831;28;20353;-70
2021/07/01 04:45:47;;;;;;;12.52;8.43;;;24.10;90.20;;;;;;5016510;28;20021;-70
2021/07/01 04:48:13;;;;;;;11.00;7.90;;;24.20;90.30;;;;;;4988536;28;20049;-70
2021/07/01 04:50:39;;;;;;;11.57;8.80;;;24.30;90.00;;;;;;5015514;28;20025;-70
2021/07/01 04:53:05;;;;;;;12.70;9.73;;;24.30;89.90;;;;;;5014091;28;20030;-71
2021/07/01 04:55:30;;;;;;;12.68;9.90;;;24.30;89.70;;;;;;5013402;28;20041;-68
2021/07/01 04:57:56;;;;;;;12.88;9.77;;;24.40;89.70;;;;;;4995950;28;20526;-68
2021/07/01 05:00:22;;;;;;;13.45;10.50;;;24.40;89.80;;;;;;5013176;28;20423;-68
2021/07/01 05:02:47;;;;;;;13.98;10.68;;;24.50;90.00;;;;;;5013605;28;20439;-68
2021/07/01 05:05:13;;;;;;;10.65;9.18;;;24.70;90.20;;;;;;5013748;28;20040;-73
2021/07/01 05:07:43;;;;;;;11.70;9.52;;;24.90;90.00;;;;;;5011474;28;20037;-68
2021/07/01 05:10:10;;;;;;;11.70;9.73;;;25.10;89.10;;;;;;5013707;28;20040;-68
2021/07/01 05:12:36;;;;;;;10.82;8.85;;;25.30;88.40;;;;;;4985495;28;20034;-70
2021/07/01 05:15:02;;;;;;;15.70;10.55;;;25.40;86.00;;;;;;4981457;28;20555;-70
2021/07/01 05:17:28;;;;;;;14.45;10.55;;;25.40;85.60;;;;;;4991654;28;20530;-73
2021/07/01 05:19:54;;;;;;;13.82;10.98;;;25.30;84.70;;;;;;4984947;28;20026;-67
2021/07/01 05:22:20;;;;;;;11.88;10.38;;;25.20;84.30;;;;;;4995642;28;20030;-67
2021/07/01 05:24:45;;;;;;;15.80;11.13;;;25.10;84.30;;;;;;4995916;28;20173;-70
2021/07/01 05:27:11;;;;;;;30.70;20.75;;;25.00;85.20;;;;;;4984573;28;20039;-70
2021/07/01 05:29:39;;;;;;;16.27;11.32;;;24.90;85.30;;;;;;5003140;28;20104;-70
2021/07/01 05:32:05;;;;;;;15.68;10.57;;;24.90;85.50;;;;;;4980758;28;20034;-68
2021/07/01 05:34:31;;;;;;;14.57;10.90;;;24.90;85.50;;;;;;4979248;28;20448;-70
2021/07/01 05:36:57;;;;;;;12.88;10.38;;;24.90;85.40;;;;;;4995010;28;20026;-69
2021/07/01 05:39:22;;;;;;;15.95;10.52;;;24.90;85.60;;;;;;4985558;28;20483;-68
2021/07/01 05:41:48;;;;;;;16.35;11.40;;;25.00;85.60;;;;;;4991515;28;20052;-72
2021/07/01 05:44:14;;;;;;;16.40;11.60;;;25.10;85.20;;;;;;4973858;28;20103;-68
2021/07/01 05:46:40;;;;;;;17.58;12.13;;;25.10;85.10;;;;;;4971696;28;20531;-71
2021/07/01 05:49:05;;;;;;;17.60;12.93;;;25.30;85.10;;;;;;4995459;28;20472;-71
2021/07/01 05:51:34;;;;;;;38.13;17.73;;;25.50;84.90;;;;;;4993752;28;20031;-70
2021/07/01 05:54:11;;;;;;;46.30;19.65;;;25.70;84.10;;;;;;4976372;28;20481;-74
2021/07/01 05:56:37;;;;;;;41.63;16.85;;;25.90;83.20;;;;;;4976882;28;20034;-73
2021/07/01 05:59:09;;;;;;;42.03;17.05;;;26.10;82.30;;;;;;4993134;28;20030;-69
2021/07/01 06:01:37;;;;;;;22.92;13.77;;;26.20;81.70;;;;;;4987177;28;20539;-72
2021/07/01 06:04:07;;;;;;;20.70;14.35;;;26.30;81.00;;;;;;4978965;28;20031;-71
2021/07/01 06:06:35;;;;;;;20.52;13.90;;;26.40;80.60;;;;;;4996134;28;20026;-71
2021/07/01 06:09:05;;;;;;;18.55;14.23;;;26.50;80.20;;;;;;4984558;28;20057;-71
2021/07/01 06:11:33;;;;;;;24.85;16.25;;;26.60;79.90;;;;;;4985001;28;20061;-71
2021/07/01 06:14:00;;;;;;;33.22;22.85;;;26.60;79.30;;;;;;5006070;28;20085;-71
2021/07/01 06:16:30;;;;;;;20.48;14.63;;;26.60;79.00;;;;;;4982946;28;20049;-70
2021/07/01 06:18:56;;;;;;;19.52;13.85;;;26.70;78.80;;;;;;4986357;28;20026;-67
2021/07/01 06:21:23;;;;;;;18.65;13.80;;;26.70;79.00;;;;;;4995748;28;20502;-69
2021/07/01 06:23:49;;;;;;;19.40;14.40;;;26.80;78.70;;;;;;4989450;28;20023;-72
2021/07/01 06:26:23;;;;;;;20.27;14.02;;;26.90;78.40;;;;;;5008122;28;20061;-70
2021/07/01 06:28:49;;;;;;;18.80;13.45;;;26.90;77.90;;;;;;5004238;28;20369;-71
2021/07/01 06:31:15;;;;;;;18.05;13.45;;;26.90;77.50;;;;;;4984806;28;20030;-71
2021/07/01 06:33:42;;;;;;;16.17;12.65;;;26.90;77.00;;;;;;5006596;28;20022;-72
2021/07/01 06:36:09;;;;;;;23.02;13.68;;;27.00;76.80;;;;;;4991619;28;20129;-71
2021/07/01 06:38:36;;;;;;;17.42;13.07;;;27.00;76.90;;;;;;4997496;28;20451;-70
2021/07/01 06:41:06;;;;;;;19.92;14.18;;;27.00;76.80;;;;;;4981709;28;20034;-70
2021/07/01 06:43:32;;;;;;;21.55;13.98;;;27.00;76.00;;;;;;4976920;28;20120;-69
2021/07/01 06:46:00;;;;;;;20.63;13.27;;;27.00;76.00;;;;;;5005213;28;20045;-72
2021/07/01 06:48:27;;;;;;;26.48;18.17;;;27.00;75.80;;;;;;4981593;28;20381;-73
2021/07/01 06:50:56;;;;;;;16.88;12.88;;;27.00;75.80;;;;;;4994076;28;20030;-69
2021/07/01 06:53:22;;;;;;;24.25;14.05;;;27.00;75.60;;;;;;4986993;28;20493;-73
2021/07/01 06:55:53;;;;;;;17.35;12.43;;;27.00;75.60;;;;;;4990821;28;20405;-70
2021/07/01 06:58:20;;;;;;;18.42;12.70;;;27.00;75.30;;;;;;4973644;28;20031;-72
2021/07/01 07:00:46;;;;;;;21.08;13.20;;;27.00;75.00;;;;;;4984614;28;20037;-70
2021/07/01 07:03:17;;;;;;;16.20;11.65;;;26.90;75.20;;;;;;4972928;28;20241;-73
2021/07/01 07:05:48;;;;;;;22.48;12.57;;;26.90;75.10;;;;;;4979700;28;20567;-72
2021/07/01 07:08:15;;;;;;;15.38;12.05;;;26.90;75.00;;;;;;4974946;28;20166;-74
2021/07/01 07:10:43;;;;;;;17.88;12.20;;;26.90;75.10;;;;;;4978165;28;20022;-73
2021/07/01 07:13:09;;;;;;;18.17;13.50;;;26.80;75.00;;;;;;4973932;28;20053;-73
2021/07/01 07:15:35;;;;;;;18.45;11.77;;;26.80;75.10;;;;;;4993181;28;20095;-71
2021/07/01 07:18:13;;;;;;;19.27;13.13;;;26.70;75.40;;;;;;4976594;28;20492;-72
2021/07/01 07:20:42;;;;;;;26.40;14.45;;;26.70;75.70;;;;;;4989568;28;20030;-76
2021/07/01 07:23:10;;;;;;;44.88;18.92;;;26.80;76.10;;;;;;4974604;28;20074;-75
2021/07/01 07:25:40;;;;;;;65.00;26.25;;;26.90;76.00;;;;;;4976940;28;20038;-76
2021/07/01 07:28:08;;;;;;;79.47;31.15;;;26.90;75.40;;;;;;4993246;28;20476;-75
2021/07/01 07:30:34;;;;;;;92.22;32.70;;;27.00;75.10;;;;;;4987575;28;20042;-76
2021/07/01 07:33:05;;;;;;;93.55;34.60;;;27.00;74.50;;;;;;4979777;28;20113;-73
2021/07/01 07:35:34;;;;;;;88.93;33.25;;;27.20;73.90;;;;;;4975209;28;20030;-77
2021/07/01 07:38:02;;;;;;;62.42;26.33;;;27.40;74.00;;;;;;4971430;28;20041;-76
2021/07/01 07:40:29;;;;;;;57.97;25.05;;;27.60;73.10;;;;;;4997026;28;20026;-76
2021/07/01 07:42:55;;;;;;;34.83;15.90;;;27.90;72.40;;;;;;4995606;28;20392;-75
2021/07/01 07:45:27;;;;;;;41.03;19.10;;;28.20;71.20;;;;;;4982749;28;20095;-78
2021/07/01 07:47:53;;;;;;;38.63;19.25;;;28.40;70.40;;;;;;4987853;28;20045;-74
2021/07/01 07:50:19;;;;;;;32.60;18.15;;;28.90;70.20;;;;;;5002442;28;20026;-72
2021/07/01 07:52:48;;;;;;;56.60;21.27;;;29.50;69.40;;;;;;4991284;28;20034;-73
2021/07/01 07:55:21;;;;;;;37.58;18.52;;;29.90;67.60;;;;;;5007496;28;20039;-72
2021/07/01 07:57:52;;;;;;;26.52;15.05;;;30.10;66.70;;;;;;4973408;28;20038;-74
2021/07/01 08:00:19;;;;;;;25.48;13.40;;;30.40;66.40;;;;;;4972950;28;20481;-72
2021/07/01 08:02:49;;;;;;;26.70;14.75;;;31.30;66.10;;;;;;4997408;28;20045;-69
2021/07/01 08:05:19;;;;;;;22.88;13.57;;;32.10;64.00;;;;;;4971026;28;20038;-72
2021/07/01 08:07:45;;;;;;;17.58;11.80;;;32.80;61.70;;;;;;4996359;28;20479;-73
2021/07/01 08:10:15;;;;;;;14.07;11.75;;;33.00;60.80;;;;;;4981728;28;20121;-72
2021/07/01 08:12:43;;;;;;;15.95;12.60;;;33.40;59.90;;;;;;4989649;28;20044;-70
2021/07/01 08:15:12;;;;;;;16.23;11.13;;;33.70;58.80;;;;;;4978439;28;20041;-72
2021/07/01 08:17:43;;;;;;;17.33;11.75;;;33.90;58.40;;;;;;4991813;28;20026;-72
2021/07/01 08:20:19;;;;;;;16.42;12.38;;;34.10;57.60;;;;;;4983804;28;20026;-73
2021/07/01 08:22:47;;;;;;;17.80;11.20;;;34.30;57.70;;;;;;4981927;28;21062;-74
2021/07/01 08:25:14;;;;;;;15.02;10.45;;;34.70;57.30;;;;;;4987957;28;20042;-74
2021/07/01 08:27:46;;;;;;;14.15;10.90;;;35.30;56.80;;;;;;4999733;28;20022;-71
2021/07/01 08:30:13;;;;;;;12.93;10.93;;;35.80;54.50;;;;;;4988651;28;20618;-71
2021/07/01 08:32:40;;;;;;;19.52;11.00;;;35.90;53.60;;;;;;5005987;28;20037;-71
2021/07/01 08:35:07;;;;;;;13.55;11.50;;;35.70;53.20;;;;;;5001528;28;20052;-74
2021/07/01 08:37:34;;;;;;;22.05;11.20;;;35.50;53.40;;;;;;4983405;28;20048;-68
2021/07/01 08:40:01;;;;;;;15.75;11.20;;;35.30;53.50;;;;;;5014345;28;20112;-72
2021/07/01 08:42:46;;;;;;;15.10;11.55;;;35.10;54.30;;;;;;4996807;28;20483;-71
2021/07/01 08:45:13;;;;;;;13.10;11.02;;;35.10;54.80;;;;;;4998543;28;20036;-72
2021/07/01 08:47:41;;;;;;;17.38;10.68;;;35.20;54.60;;;;;;4987612;28;20093;-70
2021/07/01 08:50:16;;;;;;;17.48;10.98;;;35.30;53.90;;;;;;5005463;28;20041;-71
2021/07/01 08:53:17;;;;;;;15.13;11.40;;;35.30;53.50;;;;;;4990297;28;20034;-72
2021/07/01 08:55:44;;;;;;;16.40;10.63;;;35.20;53.90;;;;;;4991360;28;20042;-73
2021/07/01 08:58:16;;;;;;;19.75;11.25;;;35.40;54.10;;;;;;4982315;28;20034;-73
2021/07/01 09:00:43;;;;;;;17.90;11.88;;;35.60;53.30;;;;;;5003171;28;20107;-71
2021/07/01 09:03:10;;;;;;;16.92;12.15;;;35.70;52.70;;;;;;4991613;28;20026;-72
2021/07/01 09:05:38;;;;;;;19.67;11.52;;;35.70;53.10;;;;;;4992698;28;20491;-75
2021/07/01 09:08:12;;;;;;;14.82;11.63;;;36.00;53.30;;;;;;4976166;28;20022;-72
2021/07/01 09:10:38;;;;;;;;;;;36.20;53.10;;;;;;4973869;28;20069;-73
2021/07/01 09:13:09;;;;;;;18.17;9.80;;;36.60;54.20;;;;;;4975844;28;19945;-73
2021/07/01 09:15:35;;;;;;;14.40;10.77;;;36.80;52.90;;;;;;4977633;28;20034;-72
2021/07/01 09:18:01;;;;;;;28.70;14.70;;;37.10;51.70;;;;;;4976833;28;20113;-71
2021/07/01 09:20:38;;;;;;;16.92;10.95;;;37.20;50.90;;;;;;4977820;28;20047;-72
2021/07/01 09:23:06;;;;;;;25.65;13.27;;;37.40;50.60;;;;;;4960766;28;20098;-71
2021/07/01 09:25:34;;;;;;;24.48;13.65;;;37.50;50.70;;;;;;4992305;28;20026;-69
2021/07/01 09:28:00;;;;;;;16.10;11.95;;;37.60;50.00;;;;;;4971838;28;20023;-70
2021/07/01 09:30:29;;;;;;;27.27;21.15;;;37.80;49.60;;;;;;4974564;28;20446;-69
2021/07/01 09:33:03;;;;;;;17.35;15.45;;;37.70;50.10;;;;;;4980931;28;20014;-69
2021/07/01 09:35:31;;;;;;;23.30;13.00;;;37.50;50.30;;;;;;4996342;28;20034;-70
2021/07/01 09:38:02;;;;;;;15.07;11.88;;;37.50;50.40;;;;;;4989383;28;20079;-71
2021/07/01 09:40:29;;;;;;;22.23;13.65;;;37.50;50.30;;;;;;4993985;28;20026;-69
2021/07/01 09:43:01;;;;;;;20.45;14.82;;;37.70;50.60;;;;;;4983295;28;20091;-66
2021/07/01 09:45:28;;;;;;;18.98;14.20;;;37.60;50.70;;;;;;5008163;28;20029;-71
2021/07/01 09:47:56;;;;;;;22.90;14.00;;;37.50;51.50;;;;;;4980855;28;20031;-70
2021/07/01 09:50:26;;;;;;;18.38;14.52;;;37.40;51.70;;;;;;5004528;28;20033;-70
2021/07/01 09:52:55;;;;;;;18.85;15.57;;;37.40;51.20;;;;;;4987425;28;20134;-72
2021/07/01 09:55:25;;;;;;;22.92;18.48;;;37.40;51.20;;;;;;4992461;28;20022;-71
2021/07/01 09:57:54;;;;;;;21.42;17.58;;;37.10;50.80;;;;;;4990101;28;20406;-69
2021/07/01 10:00:20;;;;;;;24.30;17.42;;;36.70;51.20;;;;;;4991987;28;20436;-70
2021/07/01 10:03:10;;;;;;;20.92;16.10;;;36.30;52.20;;;;;;5002836;28;20030;-70
2021/07/01 10:05:37;;;;;;;19.02;16.92;;;36.10;53.00;;;;;;4976171;28;20492;-68
2021/07/01 10:08:04;;;;;;;26.00;21.95;;;36.00;53.30;;;;;;4985962;28;20022;-68
2021/07/01 10:10:52;;;;;;;23.83;18.80;;;35.70;53.40;;;;;;4989504;28;20027;-69
2021/07/01 10:13:20;;;;;;;31.25;26.33;;;35.20;53.90;;;;;;4997235;28;20067;-71
2021/07/01 10:15:47;;;;;;;19.58;14.55;;;34.70;54.80;;;;;;4981574;28;20571;-72
2021/07/01 10:18:22;;;;;;;20.70;14.52;;;34.60;55.30;;;;;;4984621;28;20041;-71
2021/07/01 10:20:50;;;;;;;18.70;15.85;;;34.50;55.70;;;;;;4975247;28;20045;-71
2021/07/01 10:23:31;;;;;;;17.65;15.38;;;34.40;56.00;;;;;;4979967;28;20065;-72
2021/07/01 10:26:23;;;;;;;24.30;17.98;;;34.20;56.10;;;;;;4986272;28;20170;-70
2021/07/01 10:29:02;;;;;;;22.17;17.65;;;33.80;56.60;;;;;;4975876;28;20049;-71
2021/07/01 10:31:45;;;;;;;22.60;19.80;;;33.40;57.80;;;;;;4976360;28;20475;-71
2021/07/01 10:34:11;;;;;;;21.92;18.60;;;33.50;58.40;;;;;;4966363;28;20432;-71
2021/07/01 10:36:37;;;;;;;26.55;19.23;;;33.60;58.40;;;;;;4971821;28;20113;-68
2021/07/01 10:39:03;;;;;;;19.73;15.98;;;33.80;58.20;;;;;;4988561;28;20026;-72
2021/07/01 10:41:31;;;;;;;23.17;16.45;;;33.70;58.00;;;;;;5007964;28;20029;-71
2021/07/01 10:43:58;;;;;;;22.98;18.05;;;33.80;58.60;;;;;;4996124;28;20049;-71
2021/07/01 10:46:44;;;;;;;25.30;16.60;;;33.70;58.60;;;;;;5011230;28;20388;-70
2021/07/01 10:49:13;;;;;;;26.48;20.65;;;33.50;58.70;;;;;;4975600;28;20033;-75
2021/07/01 10:51:54;;;;;;;24.35;18.13;;;33.70;59.20;;;;;;4990826;28;20389;-73
2021/07/01 10:54:20;;;;;;;27.85;18.67;;;33.60;58.30;;;;;;4996216;28;20030;-72
2021/07/01 10:56:48;;;;;;;26.45;21.80;;;33.10;58.50;;;;;;4992588;28;20031;-69
2021/07/01 10:59:14;;;;;;;25.85;21.15;;;32.50;59.50;;;;;;5012251;28;20460;-69
2021/07/01 11:01:41;;;;;;;31.42;21.75;;;32.20;60.90;;;;;;4987815;28;20114;-71
2021/07/01 11:04:17;;;;;;;25.88;18.27;;;32.40;61.90;;;;;;4987359;28;20029;-72
2021/07/01 11:06:57;;;;;;;22.92;16.63;;;32.60;60.90;;;;;;4997078;28;20031;-73
2021/07/01 11:09:23;;;;;;;21.88;16.90;;;32.50;61.00;;;;;;4989000;28;20022;-71
2021/07/01 11:12:03;;;;;;;23.02;17.52;;;32.40;60.90;;;;;;4983616;28;20081;-72
2021/07/01 11:14:41;;;;;;;22.08;15.95;;;32.10;61.20;;;;;;4982259;28;20042;-72
2021/07/01 11:17:07;;;;;;;24.70;16.48;;;31.90;61.70;;;;;;4975474;28;20050;-75
2021/07/01 11:19:45;;;;;;;20.23;16.05;;;31.70;62.20;;;;;;4990502;28;20022;-69
2021/07/01 11:22:11;;;;;;;23.80;15.98;;;31.60;62.80;;;;;;4973364;28;20035;-70
2021/07/01 11:24:43;;;;;;;22.83;15.23;;;31.50;63.20;;;;;;4996141;28;20077;-73
2021/07/01 11:27:11;;;;;;;22.05;14.90;;;31.30;63.50;;;;;;4967760;28;20027;-69
2021/07/01 11:29:45;;;;;;;27.98;15.48;;;31.30;63.60;;;;;;4973050;28;20026;-69
2021/07/01 11:32:21;;;;;;;21.10;15.45;;;31.20;64.30;;;;;;4990995;28;20030;-74
2021/07/01 11:34:49;;;;;;;20.88;14.48;;;31.20;64.60;;;;;;4980108;28;20030;-69
2021/07/01 11:37:16;;;;;;;21.63;15.30;;;31.20;64.60;;;;;;4988632;28;20026;-72
2021/07/01 11:39:43;;;;;;;23.70;17.05;;;31.20;65.20;;;;;;4986805;28;20040;-75
2021/07/01 11:42:09;;;;;;;25.23;20.83;;;31.10;65.40;;;;;;4982516;28;20384;-75
2021/07/01 11:44:41;;;;;;;32.92;23.02;;;31.10;65.50;;;;;;4995965;28;20025;-73
2021/07/01 11:47:08;;;;;;;26.30;16.52;;;31.20;65.80;;;;;;5009075;28;20076;-70
2021/07/01 11:49:35;;;;;;;17.55;14.18;;;31.10;65.70;;;;;;4995204;28;20025;-73
2021/07/01 11:52:02;;;;;;;18.63;14.40;;;31.00;65.50;;;;;;4996159;28;20081;-72
2021/07/01 11:54:28;;;;;;;20.30;14.18;;;30.90;65.90;;;;;;5001206;28;20030;-72
2021/07/01 11:56:56;;;;;;;18.83;15.45;;;30.90;66.80;;;;;;4987987;28;20062;-69
2021/07/01 11:59:31;;;;;;;22.30;15.65;;;31.00;66.60;;;;;;4992661;28;20054;-72
2021/07/01 12:01:58;;;;;;;19.42;17.35;;;31.00;66.50;;;;;;4980271;28;20027;-72
2021/07/01 12:04:33;;;;;;;22.42;16.48;;;31.00;66.50;;;;;;4991062;28;20022;-72
2021/07/01 12:07:17;;;;;;;20.10;14.20;;;31.00;66.50;;;;;;4977742;28;20429;-69
2021/07/01 12:09:43;;;;;;;21.98;14.05;;;30.90;66.60;;;;;;4997647;28;20333;-71
2021/07/01 12:12:13;;;;;;;20.35;14.23;;;30.80;66.60;;;;;;4973080;28;20114;-69
2021/07/01 12:15:04;;;;;;;19.52;15.60;;;30.60;66.80;;;;;;4987679;28;20051;-73
2021/07/01 12:17:51;;;;;;;19.70;14.60;;;30.40;67.10;;;;;;4984036;28;20025;-71
2021/07/01 12:20:32;;;;;;;22.88;14.68;;;30.30;67.50;;;;;;4979670;28;20066;-74
2021/07/01 12:23:13;;;;;;;17.00;14.02;;;30.20;67.90;;;;;;4994703;28;20178;-74
2021/07/01 12:25:40;;;;;;;18.35;12.68;;;30.20;68.20;;;;;;4995336;28;20170;-69
2021/07/01 12:28:10;;;;;;;26.80;20.92;;;30.10;68.10;;;;;;4997457;28;20113;-71
2021/07/01 12:30:55;;;;;;;18.10;12.93;;;30.00;68.10;;;;;;4972799;28;20030;-68
2021/07/01 12:33:39;;;;;;;17.95;12.93;;;30.00;68.40;;;;;;4980966;28;20053;-73
2021/07/01 12:36:08;;;;;;;22.27;13.77;;;29.90;68.50;;;;;;4972542;28;20402;-72